Report METAR

 

KSJC - San Jose, California, USA
Distance from station: NE 14km
Dati ricevuti: 24/04/2019 04:53
Sereno
Sereno
 Vento da calmo
Vento: Calma
Temperatura: 17°C
P.to Rugiada: 12°C
Umidità: 73%
Barometro: 1013.2 hPa
Nuvole: Sereno
Visibility: 16 km
2019/04/24 11:53 KSJC 241153Z AUTO 00000KT 10SM CLR 17/12 A2992 RMK AO2 SLP132 T01670117 10233 20167 53001
KNUQ - Moffett Nas/Mtn, California, USA
Distance from station: N 14km
Dati ricevuti: 24/04/2019 04:56
Sereno
Sereno
 Vento da calmo
Vento: Calma
Temperatura: 18°C
P.to Rugiada: 13°C
Umidità: 73%
Barometro: 1013.5 hPa
Nuvole: Sereno
Visibility: 16 km
2019/04/24 11:56 KNUQ 241156Z 00000KT 10SM CLR 18/13 A2993 RMK AO2 SLP138 T01780128 10211 20172 53001 $
 
KPAO - Palo Alto, California, USA
Distance from station: NNO 23km
Dati ricevuti: 23/04/2019 20:47
DATI Obsoleti
Parz. nuvoloso
Parz. nuvoloso
 Vento da NO
Vento: NO 9 km/h
Temperatura: 21°C
P.to Rugiada: 14°C
Umidità: 64%
Barometro: 1013.2 hPa
Nuvole: Parz. nuvoloso
Visibility: 16 km
Cloud details: Parz. nuvoloso 4572 m
2019/04/24 03:47 KPAO 240347Z 32005KT 10SM SCT150 21/14 A2992 RMK LAST
KRHV - San Jose/Reid, California, USA
Distance from station: ENE 19km
Dati ricevuti: 23/04/2019 21:47
DATI Obsoleti
Sereno
Sereno
 Vento da calmo
Vento: Calma
Temperatura: 23°C
P.to Rugiada: 12°C
Umidità: 50%
Barometro: 1013.9 hPa
Nuvole: Sereno
Visibility: 16 km
2019/04/24 04:47 KRHV 240447Z 00000KT 10SM SKC 23/12 A2994 RMK LAST
 
KOAK - Oakland, California, USA
Distance from station: NNO 50km
Dati ricevuti: 24/04/2019 04:53
Few Clouds
Few Clouds
 Vento da calmo
Vento: Calma
Temperatura: 16°C
P.to Rugiada: 12°C
Umidità: 77%
Barometro: 1013.5 hPa
Nuvole: Few Clouds
Visibility: 14 km
Cloud details: Few Clouds 6096 m
2019/04/24 11:53 KOAK 241153Z 00000KT 9SM FEW200 16/12 A2993 RMK AO2 SLP133 T01560122 10183 20156 56001
KSQL - San Carlos Airpo, California, USA
Distance from station: NO 34km
Dati ricevuti: 24/04/2019 04:55
Sereno
Sereno
 Vento da calmo
Vento: Calma
Temperatura: 17°C
P.to Rugiada: 12°C
Umidità: 73%
Barometro: 1013.5 hPa
Nuvole: Sereno
Visibility: 16 km
2019/04/24 11:55 KSQL 241155Z AUTO 00000KT 10SM CLR 17/12 A2993 RMK AO2
 
KSFO - San Francisco, California, USA
Distance from station: NO 49km
Dati ricevuti: 24/04/2019 04:56
Few Clouds
Few Clouds
 Vento da ONO
Vento: ONO 17 km/h
Temperatura: 14°C
P.to Rugiada: 10°C
Umidità: 77%
Barometro: 1013.2 hPa
Nuvole: Few Clouds
Visibility: 16 km
Cloud details: Few Clouds 6096 m
2019/04/24 11:56 KSFO 241156Z 29009KT 10SM FEW200 14/10 A2992 RMK AO2 SLP131 T01440100 10167 20144 55001
KE16 - San Martin, California, USA
Distance from station: ESE 43km
Dati ricevuti: 24/04/2019 04:55
Coperto
Coperto
 Vento da calmo
Vento: Calma
Temperatura: 13°C
P.to Rugiada: 10°C
Umidità: 82%
Barometro: 1014.6 hPa
Nuvole: Coperto
Visibility: 16 km
Cloud details: Coperto 1676 m
2019/04/24 11:55 KE16 241155Z AUTO 00000KT 10SM OVC055 13/10 A2996 RMK AO2
 
KWVI - Watsonville, California, USA
Distance from station: SSE 44km
Dati ricevuti: 24/04/2019 04:53
Sereno
Sereno
 Vento da NNO
Vento: NNO 6 km/h
Temperatura: 12°C
P.to Rugiada: 10°C
Umidità: 88%
Barometro: 1014.2 hPa
Nuvole: Sereno
Visibility: 16 km
2019/04/24 11:53 KWVI 241153Z AUTO 34003KT 10SM CLR 12/10 A2995 RMK AO2 SLP141 T01170100 10139 20100 55002
KHAF - Half Moon Bay, California, USA
Distance from station: ONO 50km
Dati ricevuti: 24/04/2019 04:55
Mist, Sereno
Mist, Sereno
 Vento da calmo
Vento: Calma
Temperatura: 9°C
P.to Rugiada: 9°C
Umidità: 100%
Barometro: 1014.6 hPa
Summary: Mist
Nuvole: Sereno
Visibility: 8 km
2019/04/24 11:55 KHAF 241155Z AUTO 00000KT 5SM BR CLR 09/09 A2996 RMK AO2
 
KHWD - Hayward, California, USA
Distance from station: N 44km
Dati ricevuti: 24/04/2019 04:54
Sereno
Sereno
 Vento da calmo
Vento: Calma
Temperatura: 16°C
P.to Rugiada: 11°C
Umidità: 72%
Barometro: 1013.2 hPa
Nuvole: Sereno
Visibility: 16 km
2019/04/24 11:54 KHWD 241154Z 00000KT 10SM CLR 16/11 A2992 RMK AO2 SLP140 T01610111 10194 20150 56001
KLVK - Livermore, California, USA
Distance from station: NNE 51km
Dati ricevuti: 24/04/2019 04:53
Sereno
Sereno
 Vento da calmo
Vento: Calma
Temperatura: 15°C
P.to Rugiada: 11°C
Umidità: 77%
Barometro: 1013.5 hPa
Nuvole: Sereno
Visibility: 16 km
2019/04/24 11:53 KLVK 241153Z AUTO 00000KT 10SM CLR 15/11 A2993 RMK AO2 SLP131 T01500106 10194 20139 55001